createdAt,value
2022-10-05T00:02:24.259Z,2.85
2022-10-05T00:04:56.304Z,3.40
2022-10-05T00:07:24.502Z,3.70
2022-10-05T00:10:00.351Z,3.60
2022-10-05T00:12:29.805Z,4.13
2022-10-05T00:15:00.338Z,4.03
2022-10-05T00:17:29.590Z,3.58
2022-10-05T00:19:56.432Z,3.53
2022-10-05T00:22:29.308Z,3.30
2022-10-05T00:24:59.173Z,4.45
2022-10-05T00:27:31.220Z,5.95
2022-10-05T00:30:00.241Z,5.88
2022-10-05T00:32:27.359Z,4.00
2022-10-05T00:34:54.636Z,4.43
2022-10-05T00:37:21.253Z,3.78
2022-10-05T00:39:49.551Z,6.97
2022-10-05T00:42:44.011Z,5.28
2022-10-05T00:45:23.542Z,4.38
2022-10-05T00:48:11.133Z,4.15
2022-10-05T00:50:43.684Z,9.93
2022-10-05T00:53:31.639Z,4.28
2022-10-05T00:56:35.490Z,4.05
2022-10-05T00:59:36.831Z,4.40
2022-10-05T01:02:10.643Z,3.75
2022-10-05T01:04:54.207Z,6.30
2022-10-05T01:07:28.648Z,4.13
2022-10-05T01:10:15.965Z,4.32
2022-10-05T01:12:45.716Z,5.05
2022-10-05T01:15:12.542Z,5.65
2022-10-05T01:18:03.002Z,4.70
2022-10-05T01:20:32.252Z,5.85
2022-10-05T01:23:28.273Z,5.82
2022-10-05T01:25:57.689Z,4.82
2022-10-05T01:28:30.021Z,5.00
2022-10-05T01:31:04.678Z,5.18
2022-10-05T01:33:40.239Z,3.60
2022-10-05T01:36:27.005Z,4.50
2022-10-05T01:39:21.029Z,5.28
2022-10-05T01:42:10.664Z,3.88
2022-10-05T01:45:00.059Z,5.57
2022-10-05T01:47:41.878Z,9.02
2022-10-05T01:50:20.079Z,4.45
2022-10-05T01:53:19.684Z,4.72
2022-10-05T01:55:56.593Z,5.20
2022-10-05T01:58:59.282Z,4.28
2022-10-05T02:01:58.927Z,3.53
2022-10-05T02:05:01.019Z,6.25
2022-10-05T02:07:33.849Z,2.75
2022-10-05T02:10:30.894Z,3.25
2022-10-05T02:13:09.524Z,3.03
2022-10-05T02:15:49.942Z,3.58
2022-10-05T02:18:29.829Z,2.92
2022-10-05T02:21:02.917Z,3.80
2022-10-05T02:23:34.972Z,4.30
2022-10-05T02:26:02.081Z,4.45
2022-10-05T02:28:42.006Z,5.63
2022-10-05T02:31:19.602Z,4.50
2022-10-05T02:33:48.184Z,4.32
2022-10-05T02:36:23.703Z,3.92
2022-10-05T02:39:03.436Z,4.03
2022-10-05T02:41:51.680Z,3.35
2022-10-05T02:44:37.202Z,4.68
2022-10-05T02:47:27.867Z,4.47
2022-10-05T02:50:26.846Z,6.35
2022-10-05T02:53:19.517Z,4.85
2022-10-05T02:56:28.503Z,3.83
2022-10-05T02:59:16.851Z,6.00
2022-10-05T03:01:54.947Z,5.22
2022-10-05T03:04:46.449Z,6.35
2022-10-05T03:07:30.223Z,6.78
2022-10-05T03:10:20.880Z,7.43
2022-10-05T03:13:02.188Z,5.95
2022-10-05T03:15:40.882Z,6.13
2022-10-05T03:18:21.781Z,5.65
2022-10-05T03:21:10.360Z,4.38
2022-10-05T03:23:55.104Z,4.30
2022-10-05T03:26:40.632Z,6.43
2022-10-05T03:29:37.837Z,3.20
2022-10-05T03:32:14.832Z,3.60
2022-10-05T03:35:03.539Z,3.53
2022-10-05T03:38:24.826Z,3.70
2022-10-05T03:41:06.232Z,3.38
2022-10-05T03:44:14.245Z,3.20
2022-10-05T03:46:58.675Z,4.80
2022-10-05T03:49:37.591Z,4.72
2022-10-05T03:52:22.831Z,3.88
2022-10-05T03:55:13.000Z,3.10
2022-10-05T03:57:42.206Z,4.00
2022-10-05T04:00:19.483Z,3.42
2022-10-05T04:03:02.212Z,3.80
2022-10-05T04:05:55.489Z,3.83
2022-10-05T04:08:48.446Z,3.75
2022-10-05T04:11:27.573Z,5.13
2022-10-05T04:14:00.861Z,7.47
2022-10-05T04:16:52.233Z,6.65
2022-10-05T04:19:27.644Z,4.18
2022-10-05T04:22:12.477Z,4.05
2022-10-05T04:24:49.541Z,5.40
2022-10-05T04:27:23.452Z,5.38
2022-10-05T04:30:05.115Z,4.47
2022-10-05T04:32:36.737Z,7.32
2022-10-05T04:35:13.170Z,6.55
2022-10-05T04:38:17.324Z,6.25
2022-10-05T04:41:18.855Z,5.80
2022-10-05T04:44:21.391Z,6.22
2022-10-05T04:46:54.189Z,6.75
2022-10-05T04:49:21.408Z,4.55
2022-10-05T04:52:12.887Z,4.35
2022-10-05T04:55:14.781Z,5.72
2022-10-05T04:58:02.545Z,8.85
2022-10-05T05:01:01.671Z,9.88
2022-10-05T05:03:47.262Z,10.57
2022-10-05T05:06:48.294Z,10.50
2022-10-05T05:09:36.871Z,7.10
2022-10-05T05:12:06.868Z,8.35
2022-10-05T05:14:40.431Z,8.40
2022-10-05T05:17:31.940Z,7.85
2022-10-05T05:20:20.941Z,8.38
2022-10-05T05:22:50.405Z,11.00
2022-10-05T05:25:30.087Z,13.13
2022-10-05T05:28:17.761Z,8.05
2022-10-05T05:31:05.514Z,8.50
2022-10-05T05:34:03.757Z,8.77
2022-10-05T05:36:44.189Z,7.32
2022-10-05T05:39:40.137Z,6.97
2022-10-05T05:42:17.044Z,5.70
2022-10-05T05:44:49.458Z,6.88
2022-10-05T05:47:38.388Z,6.55
2022-10-05T05:50:10.229Z,6.78
2022-10-05T05:53:10.781Z,5.30
2022-10-05T05:55:46.383Z,6.82
2022-10-05T05:58:19.283Z,5.38
2022-10-05T06:01:05.876Z,4.22
2022-10-05T06:03:39.811Z,6.05
2022-10-05T06:06:17.783Z,5.03
2022-10-05T06:09:00.678Z,5.22
2022-10-05T06:11:53.093Z,4.18
2022-10-05T06:14:25.610Z,4.38
2022-10-05T06:17:01.969Z,4.18
2022-10-05T06:19:32.282Z,4.95
2022-10-05T06:22:06.780Z,4.45
2022-10-05T06:25:21.056Z,5.35
2022-10-05T06:28:12.937Z,5.10
2022-10-05T06:31:40.958Z,4.70
2022-10-05T06:34:18.931Z,6.30
2022-10-05T06:36:51.301Z,5.07
2022-10-05T06:39:48.790Z,6.50
2022-10-05T06:42:31.498Z,4.40
2022-10-05T06:45:36.185Z,5.28
2022-10-05T06:48:47.104Z,5.32
2022-10-05T06:52:01.536Z,5.22
2022-10-05T06:54:51.589Z,6.15
2022-10-05T06:58:10.344Z,8.88
2022-10-05T07:00:51.532Z,8.95
2022-10-05T07:03:40.743Z,11.35
2022-10-05T07:06:15.325Z,10.38
2022-10-05T07:09:15.123Z,9.48
2022-10-05T07:12:03.740Z,9.10
2022-10-05T07:14:55.164Z,11.57
2022-10-05T07:17:28.806Z,9.88
2022-10-05T07:20:10.711Z,8.07
2022-10-05T07:22:58.724Z,6.13
2022-10-05T07:25:42.854Z,7.20
2022-10-05T07:28:18.276Z,8.13
2022-10-05T07:31:10.564Z,6.97
2022-10-05T07:33:49.973Z,6.30
2022-10-05T07:36:54.841Z,19.48
2022-10-05T07:39:58.643Z,6.80
2022-10-05T07:42:50.907Z,6.25
2022-10-05T07:45:29.158Z,6.07
2022-10-05T07:48:01.879Z,6.43
2022-10-05T07:50:57.459Z,7.57
2022-10-05T07:53:37.669Z,7.75
2022-10-05T07:56:15.753Z,8.38
2022-10-05T07:58:51.599Z,9.30
2022-10-05T08:01:26.751Z,10.73
2022-10-05T08:04:04.292Z,7.82
2022-10-05T08:06:52.243Z,8.75
2022-10-05T08:09:34.592Z,15.25
2022-10-05T08:12:07.907Z,12.13
2022-10-05T08:14:46.545Z,9.98
2022-10-05T08:17:24.006Z,9.13
2022-10-05T08:20:03.028Z,20.25
2022-10-05T08:22:37.964Z,14.40
2022-10-05T08:25:17.648Z,30.13
2022-10-05T08:27:59.877Z,13.93
2022-10-05T08:30:26.550Z,9.27
2022-10-05T08:32:58.836Z,5.78
2022-10-05T08:35:33.997Z,6.15
2022-10-05T08:38:05.258Z,5.72
2022-10-05T08:40:46.886Z,5.20
2022-10-05T08:43:22.921Z,5.00
2022-10-05T08:45:49.531Z,5.57
2022-10-05T08:48:42.601Z,5.63
2022-10-05T08:51:12.049Z,4.93
2022-10-05T08:54:23.074Z,5.22
2022-10-05T08:57:09.864Z,5.47
2022-10-05T08:59:59.652Z,6.90
2022-10-05T09:02:32.045Z,4.97
2022-10-05T09:05:23.473Z,5.70
2022-10-05T09:08:08.558Z,4.85
2022-10-05T09:10:47.417Z,4.78
2022-10-05T09:13:47.992Z,4.72
2022-10-05T09:16:44.054Z,5.45
2022-10-05T09:19:22.851Z,4.80
2022-10-05T09:22:04.966Z,4.25
2022-10-05T09:24:57.133Z,6.03
2022-10-05T09:27:51.141Z,4.22
2022-10-05T09:30:39.522Z,4.90
2022-10-05T09:33:08.797Z,4.32
2022-10-05T09:36:03.316Z,4.38
2022-10-05T09:38:30.852Z,4.15
2022-10-05T09:40:57.601Z,3.60
2022-10-05T09:43:59.504Z,5.97
2022-10-05T09:46:53.278Z,3.38
2022-10-05T09:49:28.976Z,3.08
2022-10-05T09:52:19.072Z,5.75
2022-10-05T09:55:16.768Z,3.75
2022-10-05T09:58:05.547Z,3.42
2022-10-05T10:00:38.311Z,3.78
2022-10-05T10:03:43.042Z,3.28
2022-10-05T10:06:32.890Z,3.50
2022-10-05T10:09:41.069Z,4.53
2022-10-05T10:12:35.638Z,7.28
2022-10-05T10:15:19.580Z,2.75
2022-10-05T10:18:10.863Z,3.17
2022-10-05T10:20:43.675Z,2.85
2022-10-05T10:23:10.266Z,3.75
2022-10-05T10:26:15.750Z,3.03
2022-10-05T10:29:17.971Z,2.97
2022-10-05T10:32:10.115Z,3.17
2022-10-05T10:35:07.849Z,3.05
2022-10-05T10:37:40.791Z,3.25
2022-10-05T10:40:23.283Z,2.95
2022-10-05T10:42:59.098Z,3.17
2022-10-05T10:45:28.672Z,3.80
2022-10-05T10:48:05.068Z,4.25
2022-10-05T10:50:50.647Z,3.05
2022-10-05T10:53:22.776Z,3.08
2022-10-05T10:55:52.055Z,3.60
2022-10-05T10:58:46.576Z,3.88
2022-10-05T11:01:27.200Z,2.60
2022-10-05T11:03:59.918Z,3.95
2022-10-05T11:06:47.543Z,3.92
2022-10-05T11:09:32.365Z,3.50
2022-10-05T11:12:17.836Z,3.42
2022-10-05T11:14:59.111Z,2.50
2022-10-05T11:17:45.805Z,1.80
2022-10-05T11:20:48.301Z,3.25
2022-10-05T11:23:52.528Z,2.40
2022-10-05T11:26:19.105Z,3.13
2022-10-05T11:29:23.441Z,3.83
2022-10-05T11:32:07.830Z,5.10
2022-10-05T11:34:49.709Z,5.00
2022-10-05T11:37:36.545Z,2.25
2022-10-05T11:40:21.393Z,1.88
2022-10-05T11:43:00.162Z,2.47
2022-10-05T11:45:31.817Z,2.60
2022-10-05T11:48:17.004Z,1.73
2022-10-05T11:50:57.809Z,3.17
2022-10-05T11:53:41.294Z,1.23
2022-10-05T11:56:35.931Z,1.40
2022-10-05T11:59:15.747Z,1.58
2022-10-05T12:01:49.587Z,1.98
2022-10-05T12:04:34.560Z,1.92
2022-10-05T12:07:02.767Z,2.15
2022-10-05T12:09:32.050Z,1.30
2022-10-05T12:12:07.696Z,1.58
2022-10-05T12:14:44.248Z,2.42
2022-10-05T12:17:23.227Z,1.60
2022-10-05T12:20:06.766Z,1.00
2022-10-05T12:22:42.353Z,2.28
2022-10-05T12:25:22.061Z,1.67
2022-10-05T12:27:53.979Z,1.80
2022-10-05T12:30:45.572Z,1.20
2022-10-05T12:33:24.032Z,4.03
2022-10-05T12:36:06.292Z,3.55
2022-10-05T12:38:56.268Z,1.80
2022-10-05T12:41:33.963Z,1.48
2022-10-05T12:44:19.126Z,2.70
2022-10-05T12:47:13.559Z,0.98
2022-10-05T12:50:18.715Z,1.17
2022-10-05T12:52:59.779Z,1.13
2022-10-05T12:55:47.597Z,1.73
2022-10-05T12:58:51.303Z,1.10
2022-10-05T13:01:41.568Z,1.50
2022-10-05T13:04:14.262Z,0.95
2022-10-05T13:07:10.533Z,2.80
2022-10-05T13:09:57.878Z,1.75
2022-10-05T13:12:46.723Z,1.00
2022-10-05T13:15:31.299Z,2.78
2022-10-05T13:18:06.578Z,2.83
2022-10-05T13:20:41.876Z,1.65
2022-10-05T13:23:08.489Z,1.33
2022-10-05T13:25:41.671Z,1.50
2022-10-05T13:28:15.316Z,1.48
2022-10-05T13:30:51.115Z,1.42
2022-10-05T13:33:42.207Z,1.30
2022-10-05T13:36:30.043Z,2.30
2022-10-05T13:39:14.503Z,1.27
2022-10-05T13:42:26.782Z,2.00
2022-10-05T13:45:01.070Z,1.70
2022-10-05T13:47:43.131Z,1.70
2022-10-05T13:50:18.904Z,2.33
2022-10-05T13:52:50.873Z,3.22
2022-10-05T13:55:39.291Z,1.60
2022-10-05T13:58:23.963Z,1.27
2022-10-05T14:00:54.470Z,1.42
2022-10-05T14:03:28.194Z,1.92
2022-10-05T14:05:59.870Z,1.48
2022-10-05T14:08:33.421Z,2.60
2022-10-05T14:11:08.666Z,1.67
2022-10-05T14:13:47.071Z,2.15
2022-10-05T14:16:13.722Z,2.05
2022-10-05T14:19:04.547Z,4.43
2022-10-05T14:21:42.548Z,4.35
2022-10-05T14:24:25.871Z,2.53
2022-10-05T14:27:47.768Z,5.28
2022-10-05T14:30:14.403Z,1.95
2022-10-05T14:33:03.015Z,1.90
2022-10-05T14:35:43.503Z,1.77
2022-10-05T14:38:55.102Z,2.67
2022-10-05T14:41:27.893Z,1.25
2022-10-05T14:44:02.148Z,2.00
2022-10-05T14:46:32.674Z,3.42
2022-10-05T14:49:36.056Z,3.05
2022-10-05T14:52:32.673Z,2.35
2022-10-05T14:55:11.560Z,2.67
2022-10-05T14:57:52.078Z,1.65
2022-10-05T15:00:19.261Z,1.17
2022-10-05T15:03:19.727Z,4.25
2022-10-05T15:05:53.379Z,1.65
2022-10-05T15:08:45.123Z,2.50
2022-10-05T15:11:48.621Z,1.42
2022-10-05T15:14:21.553Z,2.35
2022-10-05T15:16:52.763Z,2.47
2022-10-05T15:19:24.829Z,3.15
2022-10-05T15:22:06.911Z,1.33
2022-10-05T15:24:43.988Z,1.38
2022-10-05T15:27:18.144Z,2.85
2022-10-05T15:30:04.432Z,1.95
2022-10-05T15:32:42.837Z,1.40
2022-10-05T15:35:43.749Z,3.83
2022-10-05T15:38:25.846Z,1.30
2022-10-05T15:40:59.078Z,1.98
2022-10-05T15:43:38.996Z,3.90
2022-10-05T15:46:26.335Z,1.90
2022-10-05T15:48:52.939Z,1.30
2022-10-05T15:51:37.969Z,2.17
2022-10-05T15:54:43.311Z,3.20
2022-10-05T15:57:18.892Z,2.13
2022-10-05T16:00:13.202Z,2.40
2022-10-05T16:02:58.232Z,5.50
2022-10-05T16:05:55.965Z,1.50
2022-10-05T16:08:53.427Z,3.22
2022-10-05T16:11:32.235Z,4.45
2022-10-05T16:14:46.505Z,2.13
2022-10-05T16:17:28.503Z,2.35
2022-10-05T16:20:02.967Z,2.80
2022-10-05T16:23:13.770Z,1.50
2022-10-05T16:26:13.185Z,2.58
2022-10-05T16:28:42.838Z,3.03
2022-10-05T16:31:22.164Z,1.40
2022-10-05T16:34:17.068Z,1.30
2022-10-05T16:36:58.326Z,3.78
2022-10-05T16:39:51.392Z,2.03
2022-10-05T16:42:27.372Z,4.47
2022-10-05T16:45:23.259Z,3.15
2022-10-05T16:48:13.495Z,3.70
2022-10-05T16:50:54.613Z,3.00
2022-10-05T16:53:44.899Z,2.47
2022-10-05T16:56:18.570Z,3.60
2022-10-05T16:59:19.600Z,2.50
2022-10-05T17:02:02.124Z,3.53
2022-10-05T17:05:00.775Z,5.35
2022-10-05T17:07:36.352Z,2.22
2022-10-05T17:10:21.467Z,3.25
2022-10-05T17:13:22.088Z,3.00
2022-10-05T17:16:14.807Z,2.75
2022-10-05T17:19:19.451Z,6.10
2022-10-05T17:22:00.442Z,5.80
2022-10-05T17:24:27.156Z,7.15
2022-10-05T17:26:56.096Z,5.65
2022-10-05T17:29:24.804Z,5.43
2022-10-05T17:32:06.821Z,4.63
2022-10-05T17:34:36.477Z,5.97
2022-10-05T17:37:27.919Z,3.78
2022-10-05T17:39:56.116Z,6.55
2022-10-05T17:42:25.937Z,5.38
2022-10-05T17:45:02.540Z,7.15
2022-10-05T17:48:04.084Z,6.13
2022-10-05T17:50:56.482Z,4.57
2022-10-05T17:54:02.609Z,4.85
2022-10-05T17:57:12.933Z,5.03
2022-10-05T17:59:44.567Z,6.00
2022-10-05T18:02:37.497Z,5.03
2022-10-05T18:05:04.597Z,4.53
2022-10-05T18:07:33.731Z,10.10
2022-10-05T18:10:12.429Z,23.55
2022-10-05T18:12:44.972Z,24.77
2022-10-05T18:15:16.548Z,13.63
2022-10-05T18:17:46.423Z,10.20
2022-10-05T18:20:26.312Z,7.75
2022-10-05T18:23:03.132Z,7.47
2022-10-05T18:25:49.104Z,6.50
2022-10-05T18:28:21.883Z,9.18
2022-10-05T18:31:20.559Z,9.18
2022-10-05T18:34:01.534Z,8.55
2022-10-05T18:36:38.046Z,9.57
2022-10-05T18:39:26.663Z,11.20
2022-10-05T18:42:20.232Z,13.55
2022-10-05T18:44:55.283Z,14.48
2022-10-05T18:47:42.591Z,12.82
2022-10-05T18:50:12.236Z,11.57
2022-10-05T18:52:57.870Z,8.85
2022-10-05T18:55:33.153Z,7.05
2022-10-05T18:58:07.408Z,8.60
2022-10-05T19:00:45.099Z,7.90
2022-10-05T19:04:04.550Z,8.43
2022-10-05T19:06:39.720Z,6.75
2022-10-05T19:09:44.966Z,6.10
2022-10-05T19:12:14.462Z,5.13
2022-10-05T19:15:04.780Z,6.07
2022-10-05T19:17:49.870Z,5.10
2022-10-05T19:20:28.736Z,5.30
2022-10-05T19:23:09.639Z,4.70
2022-10-05T19:25:48.466Z,5.35
2022-10-05T19:28:38.605Z,8.40
2022-10-05T19:31:14.943Z,5.75
2022-10-05T19:34:19.390Z,6.95
2022-10-05T19:37:09.700Z,4.65
2022-10-05T19:39:44.296Z,4.65
2022-10-05T19:42:20.191Z,4.53
2022-10-05T19:45:10.288Z,4.55
2022-10-05T19:48:09.613Z,3.80
2022-10-05T19:50:40.894Z,4.63
2022-10-05T19:53:10.241Z,3.97
2022-10-05T19:55:43.604Z,4.38
2022-10-05T19:58:39.984Z,3.10
2022-10-05T20:01:11.256Z,4.47
2022-10-05T20:03:38.541Z,3.53
2022-10-05T20:06:07.797Z,3.60
2022-10-05T20:08:40.349Z,2.95
2022-10-05T20:11:11.583Z,4.72
2022-10-05T20:13:44.395Z,3.70
2022-10-05T20:16:35.896Z,4.18
2022-10-05T20:19:42.505Z,4.20
2022-10-05T20:22:30.078Z,4.03
2022-10-05T20:25:18.093Z,6.00
2022-10-05T20:27:48.149Z,4.28
2022-10-05T20:30:21.355Z,6.05
2022-10-05T20:32:52.687Z,3.90
2022-10-05T20:35:23.279Z,5.53
2022-10-05T20:37:49.981Z,3.45
2022-10-05T20:40:18.711Z,3.67
2022-10-05T20:42:46.037Z,3.53
2022-10-05T20:45:13.858Z,3.75
2022-10-05T20:47:40.709Z,4.82
2022-10-05T20:50:09.449Z,6.22
2022-10-05T20:52:37.357Z,6.10
2022-10-05T20:55:06.099Z,7.93
2022-10-05T20:57:32.783Z,7.80
2022-10-05T20:59:59.501Z,6.97
2022-10-05T21:02:26.251Z,8.43
2022-10-05T21:04:52.947Z,8.27
2022-10-05T21:07:21.122Z,5.78
2022-10-05T21:09:47.840Z,5.50
2022-10-05T21:12:16.351Z,3.80
2022-10-05T21:14:43.349Z,4.20
2022-10-05T21:17:11.913Z,4.78
2022-10-05T21:19:39.354Z,5.93
2022-10-05T21:22:10.027Z,3.00
2022-10-05T21:24:38.856Z,2.88
2022-10-05T21:27:06.217Z,3.05
2022-10-05T21:29:35.229Z,4.53
2022-10-05T21:32:02.158Z,2.85
2022-10-05T21:34:28.909Z,4.00
2022-10-05T21:36:55.751Z,3.67
2022-10-05T21:39:22.422Z,3.70
2022-10-05T21:41:49.867Z,2.90
2022-10-05T21:44:16.810Z,4.03
2022-10-05T21:46:43.719Z,4.80
2022-10-05T21:49:10.527Z,3.38
2022-10-05T21:51:38.412Z,3.22
2022-10-05T21:54:12.069Z,2.88
2022-10-05T21:56:43.644Z,2.38
2022-10-05T21:59:15.658Z,3.72
2022-10-05T22:01:42.383Z,3.67
2022-10-05T22:04:09.184Z,3.00
2022-10-05T22:06:36.229Z,2.30
2022-10-05T22:09:04.464Z,3.63
2022-10-05T22:11:31.660Z,2.95
2022-10-05T22:14:02.407Z,3.10
2022-10-05T22:16:32.801Z,2.63
2022-10-05T22:19:04.339Z,2.78
2022-10-05T22:21:34.008Z,2.70
2022-10-05T22:24:02.669Z,2.42
2022-10-05T22:26:29.956Z,3.42
2022-10-05T22:28:57.037Z,2.20
2022-10-05T22:31:24.287Z,2.65
2022-10-05T22:33:51.520Z,2.78
2022-10-05T22:36:18.772Z,2.70
2022-10-05T22:38:47.423Z,2.33
2022-10-05T22:41:16.419Z,5.72
2022-10-05T22:43:43.110Z,3.15
2022-10-05T22:46:12.068Z,3.13
2022-10-05T22:48:39.798Z,2.95
2022-10-05T22:51:07.372Z,2.78
2022-10-05T22:53:34.874Z,2.28
2022-10-05T22:56:12.558Z,2.65
2022-10-05T22:58:40.559Z,5.53
2022-10-05T23:01:13.862Z,3.47
2022-10-05T23:03:41.179Z,5.72
2022-10-05T23:06:10.375Z,6.05
2022-10-05T23:08:38.233Z,5.20
2022-10-05T23:11:10.736Z,4.25
2022-10-05T23:13:37.584Z,4.30
2022-10-05T23:16:08.574Z,3.47
2022-10-05T23:18:35.608Z,3.72
2022-10-05T23:21:02.764Z,3.40
2022-10-05T23:23:29.446Z,4.15
2022-10-05T23:26:00.593Z,3.35
2022-10-05T23:28:28.788Z,2.97
2022-10-05T23:31:04.688Z,3.05
2022-10-05T23:33:31.699Z,3.08
2022-10-05T23:36:01.946Z,2.60
2022-10-05T23:38:29.986Z,3.63
2022-10-05T23:40:58.784Z,4.43
2022-10-05T23:43:26.776Z,6.13
2022-10-05T23:45:53.485Z,4.13
2022-10-05T23:48:20.088Z,4.93
2022-10-05T23:50:47.803Z,6.05
2022-10-05T23:53:15.364Z,3.60
2022-10-05T23:55:42.087Z,4.45
2022-10-05T23:58:09.007Z,4.38
